createdAt,value
2023-01-08T00:02:05.664Z,15.16
2023-01-08T00:05:08.625Z,15.22
2023-01-08T00:08:11.600Z,15.14
2023-01-08T00:11:14.833Z,14.85
2023-01-08T00:14:16.969Z,14.58
2023-01-08T00:17:19.306Z,14.56
2023-01-08T00:20:22.239Z,14.71
2023-01-08T00:23:24.863Z,14.57
2023-01-08T00:26:27.804Z,14.56
2023-01-08T00:29:31.098Z,14.63
2023-01-08T00:32:36.062Z,14.79
2023-01-08T00:35:41.398Z,14.81
2023-01-08T00:38:46.933Z,14.84
2023-01-08T00:41:50.181Z,14.87
2023-01-08T00:44:54.139Z,14.91
2023-01-08T00:47:58.954Z,15.11
2023-01-08T00:51:03.876Z,15.05
2023-01-08T00:54:06.657Z,15.12
2023-01-08T00:57:08.650Z,14.74
2023-01-08T01:00:14.697Z,14.62
2023-01-08T01:03:18.305Z,14.57
2023-01-08T01:06:23.163Z,14.46
2023-01-08T01:09:25.381Z,14.37
2023-01-08T01:12:28.270Z,14.45
2023-01-08T01:15:30.761Z,14.47
2023-01-08T01:18:32.856Z,14.35
2023-01-08T01:21:48.084Z,14.41
2023-01-08T01:24:51.026Z,14.50
2023-01-08T01:27:56.869Z,14.58
2023-01-08T01:30:59.518Z,14.55
2023-01-08T01:34:02.153Z,14.80
2023-01-08T01:37:05.339Z,14.98
2023-01-08T01:40:09.788Z,15.00
2023-01-08T01:43:15.131Z,14.66
2023-01-08T01:46:39.993Z,14.92
2023-01-08T01:49:54.005Z,14.85
2023-01-08T01:53:08.892Z,14.97
2023-01-08T01:56:12.048Z,14.99
2023-01-08T01:59:15.135Z,14.84
2023-01-08T02:02:17.404Z,14.97
2023-01-08T02:05:21.263Z,14.96
2023-01-08T02:08:35.463Z,15.10
2023-01-08T02:12:24.173Z,14.94
2023-01-08T02:15:49.397Z,14.73
2023-01-08T02:18:59.371Z,14.81
2023-01-08T02:22:45.886Z,14.77
2023-01-08T02:26:15.166Z,14.57
2023-01-08T02:29:23.788Z,14.56
2023-01-08T02:32:28.066Z,14.51
2023-01-08T02:35:49.110Z,14.41
2023-01-08T02:39:12.253Z,14.62
2023-01-08T02:42:36.138Z,14.74
2023-01-08T02:45:55.815Z,14.57
2023-01-08T02:49:10.515Z,14.68
2023-01-08T02:52:16.112Z,14.58
2023-01-08T02:55:21.184Z,14.80
2023-01-08T02:58:25.610Z,14.65
2023-01-08T03:01:30.239Z,14.80
2023-01-08T03:04:40.444Z,14.66
2023-01-08T03:07:43.776Z,14.67
2023-01-08T03:10:52.249Z,14.44
2023-01-08T03:14:02.868Z,14.21
2023-01-08T03:17:20.395Z,14.31
2023-01-08T03:20:26.387Z,14.33
2023-01-08T03:23:31.850Z,14.36
2023-01-08T03:26:37.485Z,14.26
2023-01-08T03:29:40.649Z,14.30
2023-01-08T03:32:45.386Z,14.53
2023-01-08T03:35:50.802Z,14.52
2023-01-08T03:39:12.649Z,14.55
2023-01-08T03:42:18.211Z,14.53
2023-01-08T03:45:22.307Z,14.45
2023-01-08T03:48:27.572Z,14.35
2023-01-08T03:51:30.224Z,14.42
2023-01-08T03:54:34.949Z,14.53
2023-01-08T03:57:37.099Z,14.45
2023-01-08T04:00:39.439Z,14.34
2023-01-08T04:03:41.492Z,14.26
2023-01-08T04:06:43.710Z,14.12
2023-01-08T04:09:46.046Z,14.13
2023-01-08T04:12:48.127Z,14.14
2023-01-08T04:15:51.847Z,15.94
2023-01-08T04:18:54.249Z,16.91
2023-01-08T04:21:56.259Z,17.28
2023-01-08T04:24:58.426Z,17.68
2023-01-08T04:28:00.504Z,18.81
2023-01-08T04:31:10.013Z,19.55
2023-01-08T04:34:12.280Z,19.44
2023-01-08T04:37:14.328Z,19.95
2023-01-08T04:40:16.543Z,20.91
2023-01-08T04:43:18.525Z,20.79
2023-01-08T04:46:20.675Z,20.89
2023-01-08T04:49:22.893Z,20.95
2023-01-08T04:52:25.531Z,21.03
2023-01-08T04:55:27.770Z,19.45
2023-01-08T04:58:29.988Z,19.44
2023-01-08T05:01:32.494Z,18.95
2023-01-08T05:04:35.032Z,18.46
2023-01-08T05:07:38.198Z,18.46
2023-01-08T05:10:40.656Z,18.50
2023-01-08T05:13:42.830Z,18.67
2023-01-08T05:16:44.920Z,18.64
2023-01-08T05:19:47.118Z,18.49
2023-01-08T05:22:49.149Z,18.77
2023-01-08T05:25:51.226Z,18.33
2023-01-08T05:28:53.371Z,18.27
2023-01-08T05:31:56.944Z,17.98
2023-01-08T05:34:59.393Z,18.12
2023-01-08T05:38:03.189Z,18.61
2023-01-08T05:41:06.280Z,18.27
2023-01-08T05:44:10.294Z,18.13
2023-01-08T05:47:13.690Z,18.86
2023-01-08T05:50:15.913Z,18.31
2023-01-08T05:53:17.945Z,18.04
2023-01-08T05:56:22.563Z,18.51
2023-01-08T05:59:24.851Z,19.16
2023-01-08T06:02:27.639Z,20.18
2023-01-08T06:05:31.319Z,20.62
2023-01-08T06:08:34.069Z,20.13
2023-01-08T06:11:36.103Z,19.23
2023-01-08T06:14:39.196Z,18.91
2023-01-08T06:17:42.170Z,18.61
2023-01-08T06:20:44.315Z,18.54
2023-01-08T06:23:46.285Z,19.15
2023-01-08T06:26:48.222Z,18.69
2023-01-08T06:29:50.276Z,18.34
2023-01-08T06:32:57.116Z,18.61
2023-01-08T06:36:05.144Z,18.74
2023-01-08T06:39:08.353Z,18.25
2023-01-08T06:42:10.580Z,18.25
2023-01-08T06:45:13.035Z,18.14
2023-01-08T06:48:15.113Z,18.73
2023-01-08T06:51:17.248Z,18.61
2023-01-08T06:54:19.725Z,18.91
2023-01-08T06:57:22.159Z,19.14
2023-01-08T07:00:26.330Z,20.77
2023-01-08T07:03:29.911Z,20.02
2023-01-08T07:06:33.558Z,20.28
2023-01-08T07:09:35.960Z,19.90
2023-01-08T07:12:37.995Z,19.65
2023-01-08T07:15:41.501Z,18.71
2023-01-08T07:18:44.986Z,18.26
2023-01-08T07:21:47.335Z,18.25
2023-01-08T07:24:49.588Z,17.90
2023-01-08T07:27:52.051Z,17.79
2023-01-08T07:30:54.299Z,17.87
2023-01-08T07:33:56.557Z,17.86
2023-01-08T07:36:58.591Z,18.18
2023-01-08T07:40:00.710Z,18.26
2023-01-08T07:43:04.919Z,18.67
2023-01-08T07:46:08.169Z,19.52
2023-01-08T07:49:10.681Z,19.45
2023-01-08T07:52:12.728Z,19.60
2023-01-08T07:55:14.961Z,19.66
2023-01-08T07:58:17.382Z,19.45
2023-01-08T08:01:19.591Z,19.01
2023-01-08T08:04:21.692Z,18.37
2023-01-08T08:07:23.762Z,18.28
2023-01-08T08:10:25.862Z,18.02
2023-01-08T08:13:28.155Z,18.51
2023-01-08T08:16:30.197Z,19.12
2023-01-08T08:19:32.301Z,19.20
2023-01-08T08:22:34.316Z,18.51
2023-01-08T08:25:37.080Z,18.47
2023-01-08T08:28:42.272Z,18.56
2023-01-08T08:31:44.574Z,18.40
2023-01-08T08:34:46.532Z,18.66
2023-01-08T08:37:48.831Z,18.71
2023-01-08T08:40:51.264Z,18.31
2023-01-08T08:43:53.674Z,18.00
2023-01-08T08:46:55.699Z,19.42
2023-01-08T08:49:57.913Z,21.69
2023-01-08T08:53:00.887Z,20.53
2023-01-08T08:56:03.126Z,19.76
2023-01-08T08:59:05.161Z,19.10
2023-01-08T09:02:07.677Z,18.64
2023-01-08T09:05:10.920Z,18.49
2023-01-08T09:08:13.269Z,18.36
2023-01-08T09:11:16.525Z,18.36
2023-01-08T09:14:18.804Z,18.54
2023-01-08T09:17:22.366Z,18.30
2023-01-08T09:20:29.820Z,18.24
2023-01-08T09:23:32.771Z,18.23
2023-01-08T09:26:34.901Z,18.53
2023-01-08T09:29:36.930Z,18.65
2023-01-08T09:32:39.132Z,18.49
2023-01-08T09:35:44.830Z,18.64
2023-01-08T09:38:46.818Z,18.67
2023-01-08T09:41:50.037Z,18.62
2023-01-08T09:44:55.633Z,18.62
2023-01-08T09:48:01.306Z,18.64
2023-01-08T09:51:06.542Z,18.59
2023-01-08T09:54:15.744Z,18.62
2023-01-08T09:57:20.503Z,18.75
2023-01-08T10:00:29.869Z,18.63
2023-01-08T10:03:43.694Z,18.67
2023-01-08T10:07:02.394Z,18.65
2023-01-08T10:10:07.047Z,18.31
2023-01-08T10:13:14.644Z,18.23
2023-01-08T10:16:33.560Z,18.19
2023-01-08T10:19:38.932Z,18.21
2023-01-08T10:22:41.408Z,17.99
2023-01-08T10:25:55.342Z,17.92
2023-01-08T10:29:17.499Z,17.84
2023-01-08T10:32:39.820Z,17.68
2023-01-08T10:35:43.462Z,17.49
2023-01-08T10:38:56.438Z,17.68
2023-01-08T10:42:05.884Z,17.55
2023-01-08T10:45:19.109Z,17.27
2023-01-08T10:48:21.424Z,17.36
2023-01-08T10:51:25.981Z,17.32
2023-01-08T10:54:41.112Z,17.36
2023-01-08T10:57:53.187Z,17.22
2023-01-08T11:00:57.736Z,17.12
2023-01-08T11:04:02.181Z,17.08
2023-01-08T11:07:06.856Z,16.97
2023-01-08T11:10:30.369Z,16.89
2023-01-08T11:13:32.663Z,16.78
2023-01-08T11:16:39.793Z,16.94
2023-01-08T11:19:41.956Z,16.86
2023-01-08T11:22:44.062Z,16.85
2023-01-08T11:26:31.985Z,16.69
2023-01-08T11:30:05.081Z,16.81
2023-01-08T11:33:34.204Z,16.75
2023-01-08T11:42:04.551Z,16.56
2023-01-08T11:45:38.844Z,16.62
2023-01-08T11:49:02.043Z,16.50
2023-01-08T11:52:56.490Z,16.43
2023-01-08T11:56:37.593Z,16.41
2023-01-08T11:59:55.576Z,16.28
2023-01-08T12:03:11.544Z,16.24
2023-01-08T12:06:45.259Z,16.31
2023-01-08T12:09:58.150Z,15.66
2023-01-08T12:13:22.996Z,16.30
2023-01-08T12:17:03.050Z,16.65
2023-01-08T12:20:36.405Z,17.05
2023-01-08T12:23:44.241Z,17.05
2023-01-08T12:27:07.644Z,17.07
2023-01-08T12:30:18.909Z,17.18
2023-01-08T12:33:35.013Z,17.09
2023-01-08T12:36:41.824Z,17.17
2023-01-08T12:39:53.463Z,17.17
2023-01-08T12:43:01.605Z,17.24
2023-01-08T12:46:06.232Z,17.38
2023-01-08T12:49:11.563Z,17.26
2023-01-08T12:52:24.169Z,17.41
2023-01-08T12:55:42.767Z,17.73
2023-01-08T12:58:45.230Z,17.36
2023-01-08T13:02:14.423Z,17.39
2023-01-08T13:05:19.384Z,17.57
2023-01-08T13:08:52.938Z,17.48
2023-01-08T13:12:03.223Z,17.61
2023-01-08T13:15:07.004Z,17.59
2023-01-08T13:18:21.219Z,17.70
2023-01-08T13:21:31.318Z,17.84
2023-01-08T13:24:41.258Z,17.64
2023-01-08T13:27:44.962Z,17.65
2023-01-08T13:30:50.362Z,17.92
2023-01-08T13:33:52.915Z,18.33
2023-01-08T13:36:57.509Z,18.42
2023-01-08T13:39:59.659Z,18.69
2023-01-08T13:43:06.454Z,18.10
2023-01-08T13:46:23.022Z,19.77
2023-01-08T13:49:57.192Z,21.26
2023-01-08T13:53:04.096Z,20.32
2023-01-08T13:56:09.177Z,21.03
2023-01-08T13:59:42.953Z,21.08
2023-01-08T14:02:50.596Z,19.01
2023-01-08T14:06:06.604Z,18.66
2023-01-08T14:09:35.272Z,18.81
2023-01-08T14:12:37.486Z,18.87
2023-01-08T14:15:39.856Z,19.44
2023-01-08T14:18:44.173Z,20.09
2023-01-08T14:21:57.390Z,19.14
2023-01-08T14:25:04.087Z,19.13
2023-01-08T14:28:12.184Z,18.97
2023-01-08T14:31:31.505Z,18.96
2023-01-08T14:34:39.883Z,18.70
2023-01-08T14:37:42.439Z,18.77
2023-01-08T14:41:04.983Z,18.58
2023-01-08T14:44:14.205Z,18.78
2023-01-08T14:47:22.140Z,19.23
2023-01-08T14:50:24.369Z,19.01
2023-01-08T14:53:34.089Z,19.12
2023-01-08T14:56:37.656Z,19.10
2023-01-08T14:59:40.015Z,19.47
2023-01-08T15:02:49.373Z,18.95
2023-01-08T15:05:54.615Z,19.03
2023-01-08T15:08:58.529Z,19.27
2023-01-08T15:12:04.087Z,19.27
2023-01-08T15:15:22.442Z,19.10
2023-01-08T15:18:25.516Z,19.86
2023-01-08T15:21:27.684Z,20.54
2023-01-08T15:24:37.130Z,20.07
2023-01-08T15:27:40.152Z,20.14
2023-01-08T15:30:47.565Z,20.61
2023-01-08T15:34:00.152Z,19.96
2023-01-08T15:37:02.743Z,20.62
2023-01-08T15:40:05.734Z,20.94
2023-01-08T15:43:12.759Z,20.63
2023-01-08T15:46:25.321Z,21.37
2023-01-08T15:49:41.067Z,21.36
2023-01-08T15:52:43.868Z,21.04
2023-01-08T15:55:48.339Z,21.64
2023-01-08T15:58:50.414Z,21.18
2023-01-08T16:01:53.274Z,21.34
2023-01-08T16:04:57.196Z,21.86
2023-01-08T16:07:59.844Z,21.25
2023-01-08T16:11:02.002Z,21.14
2023-01-08T16:14:04.987Z,21.72
2023-01-08T16:17:11.091Z,21.44
2023-01-08T16:20:15.775Z,21.19
2023-01-08T16:23:21.751Z,21.62
2023-01-08T16:26:25.093Z,20.74
2023-01-08T16:29:30.091Z,20.74
2023-01-08T16:32:32.785Z,21.08
2023-01-08T16:36:57.912Z,20.23
2023-01-08T16:40:02.429Z,20.86
2023-01-08T16:43:08.036Z,23.23
2023-01-08T16:46:16.670Z,24.12
2023-01-08T16:50:17.365Z,23.49
2023-01-08T16:53:21.249Z,22.32
2023-01-08T16:56:24.537Z,21.80
2023-01-08T16:59:27.682Z,22.22
2023-01-08T17:02:42.344Z,21.81
2023-01-08T17:05:47.295Z,21.64
2023-01-08T17:08:51.949Z,22.03
2023-01-08T17:11:57.320Z,21.59
2023-01-08T17:15:03.699Z,21.77
2023-01-08T17:18:06.360Z,21.97
2023-01-08T17:21:09.964Z,21.33
2023-01-08T17:24:12.202Z,21.56
2023-01-08T17:27:14.241Z,22.19
2023-01-08T17:30:16.532Z,21.21
2023-01-08T17:33:18.853Z,21.67
2023-01-08T17:36:37.668Z,21.86
2023-01-08T17:39:49.258Z,20.93
2023-01-08T17:42:51.335Z,21.42
2023-01-08T17:45:56.515Z,21.83
2023-01-08T17:49:00.541Z,20.92
2023-01-08T17:52:02.778Z,21.67
2023-01-08T17:55:05.299Z,22.02
2023-01-08T17:58:09.727Z,20.70
2023-01-08T18:01:14.630Z,21.63
2023-01-08T18:04:17.438Z,22.02
2023-01-08T18:07:19.570Z,20.72
2023-01-08T18:10:21.615Z,21.33
2023-01-08T18:13:23.978Z,21.46
2023-01-08T18:16:27.222Z,21.44
2023-01-08T18:19:29.236Z,20.29
2023-01-08T18:22:31.694Z,19.95
2023-01-08T18:25:45.046Z,19.80
2023-01-08T18:28:48.486Z,19.30
2023-01-08T18:31:51.490Z,18.87
2023-01-08T18:34:53.742Z,18.91
2023-01-08T18:37:57.169Z,18.39
2023-01-08T18:41:02.211Z,18.38
2023-01-08T18:44:06.845Z,18.26
2023-01-08T18:47:09.274Z,18.30
2023-01-08T18:50:12.022Z,18.25
2023-01-08T18:53:14.248Z,18.28
2023-01-08T18:56:35.563Z,17.91
2023-01-08T18:59:38.121Z,17.79
2023-01-08T19:02:40.425Z,17.58
2023-01-08T19:05:43.233Z,17.74
2023-01-08T19:08:46.423Z,17.64
2023-01-08T19:11:48.632Z,17.40
2023-01-08T19:14:51.114Z,17.29
2023-01-08T19:17:53.224Z,17.07
2023-01-08T19:20:56.438Z,17.26
2023-01-08T19:24:00.144Z,17.19
2023-01-08T19:27:02.225Z,17.15
2023-01-08T19:30:07.423Z,16.57
2023-01-08T19:33:10.850Z,16.57
2023-01-08T19:36:15.966Z,16.51
2023-01-08T19:39:22.809Z,16.66
2023-01-08T19:42:45.816Z,16.98
2023-01-08T19:45:47.890Z,17.08
2023-01-08T19:48:50.325Z,17.32
2023-01-08T19:51:53.086Z,17.20
2023-01-08T19:54:57.834Z,17.23
2023-01-08T19:58:00.124Z,17.33
2023-01-08T20:01:10.116Z,17.36
2023-01-08T20:04:16.973Z,17.16
2023-01-08T20:07:28.844Z,17.28
2023-01-08T20:10:31.736Z,17.18
2023-01-08T20:13:37.113Z,17.06
2023-01-08T20:16:40.320Z,17.06
2023-01-08T20:19:46.894Z,16.88
2023-01-08T20:22:50.986Z,16.90
2023-01-08T20:25:56.376Z,16.57
2023-01-08T20:28:59.823Z,16.66
2023-01-08T20:32:05.370Z,16.57
2023-01-08T20:35:08.508Z,16.69
2023-01-08T20:38:12.034Z,16.78
2023-01-08T20:41:14.751Z,16.71
2023-01-08T20:44:18.995Z,16.73
2023-01-08T20:47:23.260Z,16.79
2023-01-08T20:50:25.682Z,16.77
2023-01-08T20:53:33.052Z,17.11
2023-01-08T20:56:42.335Z,17.01
2023-01-08T20:59:52.703Z,16.67
2023-01-08T21:03:04.385Z,16.86
2023-01-08T21:06:15.846Z,16.74
2023-01-08T21:09:21.026Z,16.51
2023-01-08T21:12:23.430Z,16.59
2023-01-08T21:15:31.748Z,16.42
2023-01-08T21:18:34.604Z,16.62
2023-01-08T21:21:40.775Z,16.82
2023-01-08T21:24:44.360Z,17.16
2023-01-08T21:27:47.648Z,17.06
2023-01-08T21:30:54.788Z,16.99
2023-01-08T21:33:58.712Z,16.97
2023-01-08T21:37:02.635Z,16.69
2023-01-08T21:40:06.842Z,16.62
2023-01-08T21:43:30.873Z,16.57
2023-01-08T21:46:34.709Z,16.48
2023-01-08T21:49:38.830Z,16.38
2023-01-08T21:53:00.104Z,16.45
2023-01-08T21:56:04.218Z,16.57
2023-01-08T21:59:06.280Z,16.40
2023-01-08T22:02:19.601Z,16.37
2023-01-08T22:05:21.758Z,16.37
2023-01-08T22:08:24.101Z,16.21
2023-01-08T22:11:35.969Z,16.28
2023-01-08T22:14:57.687Z,16.07
2023-01-08T22:18:02.687Z,16.26
2023-01-08T22:21:13.505Z,16.15
2023-01-08T22:24:18.447Z,15.94
2023-01-08T22:27:29.285Z,15.60
2023-01-08T22:30:31.888Z,15.87
2023-01-08T22:33:34.526Z,16.10
2023-01-08T22:36:37.069Z,15.95
2023-01-08T22:39:40.172Z,15.86
2023-01-08T22:42:45.950Z,15.92
2023-01-08T22:46:00.598Z,15.94
2023-01-08T22:49:52.727Z,15.93
2023-01-08T22:52:54.857Z,15.82
2023-01-08T22:56:02.045Z,15.97
2023-01-08T23:02:44.866Z,16.00
2023-01-08T23:05:47.301Z,15.87
2023-01-08T23:09:08.325Z,15.93
2023-01-08T23:17:19.595Z,15.69
2023-01-08T23:21:12.123Z,15.76
2023-01-08T23:24:43.583Z,15.74
2023-01-08T23:27:48.275Z,15.73
2023-01-08T23:30:50.564Z,15.70
2023-01-08T23:33:54.776Z,15.59
2023-01-08T23:36:58.803Z,15.48
2023-01-08T23:40:01.141Z,15.49
2023-01-08T23:43:05.873Z,15.38
2023-01-08T23:46:09.498Z,15.45
2023-01-08T23:49:12.103Z,15.37
2023-01-08T23:52:15.444Z,15.40
2023-01-08T23:55:17.752Z,15.32
2023-01-08T23:58:21.422Z,15.32
